createdAt,value
2019-01-26T00:01:07.494Z,95.20
2019-01-26T00:06:13.433Z,95.60
2019-01-26T00:11:19.556Z,96.40
2019-01-26T00:16:26.437Z,96.40
2019-01-26T00:21:32.926Z,96.50
2019-01-26T00:26:39.483Z,96.50
2019-01-26T00:31:46.846Z,96.80
2019-01-26T00:36:54.273Z,96.70
2019-01-26T00:42:01.538Z,96.80
2019-01-26T00:47:08.930Z,97.30
2019-01-26T00:52:15.097Z,97.10
2019-01-26T00:57:22.131Z,97.00
2019-01-26T01:02:29.273Z,96.80
2019-01-26T01:07:35.226Z,97.10
2019-01-26T01:12:44.194Z,97.40
2019-01-26T01:17:51.691Z,97.80
2019-01-26T01:22:59.082Z,97.80
2019-01-26T01:28:05.343Z,98.20
2019-01-26T01:33:13.179Z,97.70
2019-01-26T01:38:20.448Z,96.90
2019-01-26T01:43:27.256Z,95.90
2019-01-26T01:48:34.759Z,96.00
2019-01-26T01:53:40.629Z,96.50
2019-01-26T01:58:46.907Z,95.30
2019-01-26T02:03:53.197Z,95.80
2019-01-26T02:09:01.840Z,96.60
2019-01-26T02:14:11.506Z,96.90
2019-01-26T02:19:37.996Z,95.90
2019-01-26T02:24:45.504Z,96.00
2019-01-26T02:29:52.585Z,95.60
2019-01-26T02:34:58.732Z,94.80
2019-01-26T02:40:05.271Z,94.80
2019-01-26T02:45:12.695Z,94.70
2019-01-26T02:50:19.375Z,93.10
2019-01-26T02:55:26.129Z,93.30
2019-01-26T03:00:33.349Z,93.50
2019-01-26T03:05:42.073Z,93.80
2019-01-26T03:10:49.175Z,93.80
2019-01-26T03:15:55.272Z,93.90
2019-01-26T03:21:02.447Z,94.50
2019-01-26T03:26:08.747Z,95.20
2019-01-26T03:31:16.053Z,95.80
2019-01-26T03:36:23.918Z,96.30
2019-01-26T03:41:31.101Z,95.90
2019-01-26T03:46:37.834Z,94.20
2019-01-26T03:51:44.762Z,94.10
2019-01-26T03:56:51.100Z,93.60
2019-01-26T04:01:58.737Z,94.40
2019-01-26T04:07:06.176Z,95.60
2019-01-26T04:12:13.221Z,95.40
2019-01-26T04:17:21.921Z,96.00
2019-01-26T04:22:29.575Z,97.10
2019-01-26T04:27:35.950Z,98.40
2019-01-26T04:32:43.551Z,99.60
2019-01-26T04:37:50.126Z,99.60
2019-01-26T04:42:58.658Z,99.60
2019-01-26T04:48:05.881Z,99.60
2019-01-26T04:53:12.455Z,99.60
2019-01-26T04:58:19.970Z,99.60
2019-01-26T05:03:25.793Z,99.60
2019-01-26T05:08:32.804Z,99.60
2019-01-26T05:13:39.272Z,99.60
2019-01-26T05:18:45.276Z,99.60
2019-01-26T05:23:51.170Z,99.60
2019-01-26T05:28:57.831Z,99.60
2019-01-26T05:34:04.269Z,99.60
2019-01-26T05:39:10.393Z,99.60
2019-01-26T05:44:16.986Z,99.60
2019-01-26T05:49:22.869Z,99.60
2019-01-26T05:54:29.806Z,99.60
2019-01-26T05:59:36.019Z,99.60
2019-01-26T06:04:43.281Z,99.60
2019-01-26T06:09:49.717Z,99.60
2019-01-26T06:14:57.864Z,99.60
2019-01-26T06:20:04.397Z,99.60
2019-01-26T06:25:13.054Z,99.60
2019-01-26T06:30:34.242Z,99.60
2019-01-26T06:35:42.007Z,99.60
2019-01-26T06:40:49.080Z,99.60
2019-01-26T06:45:56.790Z,99.60
2019-01-26T06:51:04.928Z,99.60
2019-01-26T06:56:12.525Z,99.60
2019-01-26T07:01:22.346Z,99.60
2019-01-26T07:06:38.430Z,99.60
2019-01-26T07:11:46.465Z,99.60
2019-01-26T07:16:53.907Z,99.60
2019-01-26T07:22:02.160Z,99.60
2019-01-26T07:27:09.068Z,99.60
2019-01-26T07:32:16.519Z,99.60
2019-01-26T07:37:22.874Z,99.60
2019-01-26T07:42:29.559Z,99.60
2019-01-26T07:47:35.660Z,99.60
2019-01-26T07:52:41.780Z,99.60
2019-01-26T07:57:47.619Z,99.60
2019-01-26T08:02:55.346Z,99.60
2019-01-26T08:08:01.366Z,99.60
2019-01-26T08:13:07.563Z,99.60
2019-01-26T08:18:13.471Z,99.60
2019-01-26T08:23:20.728Z,99.60
2019-01-26T08:28:28.204Z,99.60
2019-01-26T08:33:40.821Z,99.60
2019-01-26T08:38:47.433Z,99.60
2019-01-26T08:43:54.104Z,99.60
2019-01-26T08:49:01.222Z,99.60
2019-01-26T08:54:07.734Z,99.60
2019-01-26T08:59:14.003Z,99.60
2019-01-26T09:04:28.156Z,99.60
2019-01-26T09:09:35.580Z,99.60
2019-01-26T09:14:43.300Z,99.60
2019-01-26T09:19:50.399Z,99.60
2019-01-26T09:24:57.451Z,99.60
2019-01-26T09:30:06.137Z,99.60
2019-01-26T09:35:11.869Z,99.60
2019-01-26T09:40:18.418Z,99.60
2019-01-26T09:45:24.892Z,99.60
2019-01-26T09:50:32.012Z,99.60
2019-01-26T09:55:39.089Z,99.60
2019-01-26T10:00:47.279Z,99.60
2019-01-26T10:05:55.221Z,99.60
2019-01-26T10:11:02.086Z,99.60
2019-01-26T10:16:09.496Z,99.60
2019-01-26T10:21:15.790Z,99.60
2019-01-26T10:26:21.796Z,99.60
2019-01-26T10:31:27.778Z,99.60
2019-01-26T10:36:46.271Z,99.60
2019-01-26T10:42:11.531Z,99.60
2019-01-26T10:47:18.836Z,99.60
2019-01-26T10:52:25.322Z,99.60
2019-01-26T10:57:32.882Z,99.60
2019-01-26T11:02:39.437Z,99.60
2019-01-26T11:07:46.733Z,99.60
2019-01-26T11:12:54.545Z,99.60
2019-01-26T11:18:01.070Z,99.60
2019-01-26T11:23:08.253Z,99.60
2019-01-26T11:28:16.663Z,99.60
2019-01-26T11:33:24.075Z,99.60
2019-01-26T11:38:32.101Z,99.60
2019-01-26T11:43:39.815Z,99.60
2019-01-26T11:48:48.148Z,99.60
2019-01-26T11:53:55.311Z,99.60
2019-01-26T11:59:02.193Z,99.60
2019-01-26T12:04:27.472Z,99.60
2019-01-26T12:09:35.399Z,99.60
2019-01-26T12:14:41.719Z,99.60
2019-01-26T12:19:47.849Z,99.60
2019-01-26T12:24:56.373Z,99.60
2019-01-26T12:30:03.440Z,99.60
2019-01-26T12:35:11.389Z,99.60
2019-01-26T12:40:17.468Z,99.60
2019-01-26T12:45:24.283Z,99.60
2019-01-26T12:50:31.404Z,99.60
2019-01-26T12:55:39.849Z,99.60
2019-01-26T13:00:47.011Z,99.60
2019-01-26T13:05:54.941Z,99.60
2019-01-26T13:11:05.484Z,99.60
2019-01-26T13:16:12.006Z,99.60
2019-01-26T13:21:19.275Z,99.60
2019-01-26T13:26:25.708Z,99.60
2019-01-26T13:31:31.875Z,99.60
2019-01-26T13:36:38.403Z,99.60
2019-01-26T13:41:44.547Z,99.60
2019-01-26T13:46:51.926Z,99.60
2019-01-26T13:51:59.364Z,99.60
2019-01-26T13:57:06.181Z,99.60
2019-01-26T14:02:12.009Z,99.60
2019-01-26T14:07:18.212Z,99.60
2019-01-26T14:12:24.254Z,99.60
2019-01-26T14:17:30.477Z,99.60
2019-01-26T14:22:37.310Z,99.60
2019-01-26T14:27:43.447Z,99.60
2019-01-26T14:32:52.662Z,99.60
2019-01-26T14:37:56.938Z,99.60
2019-01-26T14:43:02.985Z,99.60
2019-01-26T14:48:09.579Z,99.60
2019-01-26T14:53:15.941Z,99.60
2019-01-26T14:58:22.399Z,99.60
2019-01-26T15:03:30.238Z,99.60
2019-01-26T15:08:36.721Z,99.60
2019-01-26T15:13:42.972Z,99.60
2019-01-26T15:18:49.837Z,99.60
2019-01-26T15:23:56.436Z,99.60
2019-01-26T15:29:02.526Z,99.60
2019-01-26T15:34:08.953Z,99.60
2019-01-26T15:39:15.190Z,99.60
2019-01-26T15:44:21.534Z,99.60
2019-01-26T15:49:32.938Z,99.60
2019-01-26T15:54:41.250Z,99.60
2019-01-26T15:59:53.423Z,99.60
2019-01-26T16:04:56.995Z,99.60
2019-01-26T16:10:05.230Z,99.60
2019-01-26T16:15:13.870Z,99.60
2019-01-26T16:20:20.642Z,99.60
2019-01-26T16:25:26.950Z,99.60
2019-01-26T16:30:35.791Z,99.60
2019-01-26T16:35:42.718Z,99.60
2019-01-26T16:40:50.063Z,99.60
2019-01-26T16:45:57.530Z,99.60
2019-01-26T16:51:04.402Z,99.60
2019-01-26T16:56:11.743Z,99.60
2019-01-26T17:01:18.796Z,99.60
2019-01-26T17:06:26.096Z,99.60
2019-01-26T17:11:53.605Z,99.60
2019-01-26T17:17:01.047Z,99.60
2019-01-26T17:22:07.995Z,99.60
2019-01-26T17:27:14.033Z,99.60
2019-01-26T17:32:20.479Z,99.60
2019-01-26T17:37:27.726Z,99.60
2019-01-26T17:42:35.039Z,99.60
2019-01-26T17:47:43.860Z,99.60
2019-01-26T17:52:51.440Z,99.60
2019-01-26T17:57:58.697Z,99.60
2019-01-26T18:03:06.941Z,99.60
2019-01-26T18:08:16.041Z,99.60
2019-01-26T18:13:22.357Z,99.60
2019-01-26T18:18:30.970Z,99.60
2019-01-26T18:23:39.763Z,99.60
2019-01-26T18:28:46.043Z,99.60
2019-01-26T18:33:52.228Z,99.60
2019-01-26T18:39:02.066Z,99.60
2019-01-26T18:44:08.502Z,99.60
2019-01-26T18:49:14.927Z,99.60
2019-01-26T18:54:22.753Z,99.60
2019-01-26T18:59:30.478Z,99.60
2019-01-26T19:04:46.140Z,99.60
2019-01-26T19:09:51.946Z,99.60
2019-01-26T19:14:58.242Z,99.60
2019-01-26T19:20:04.937Z,99.60
2019-01-26T19:25:12.907Z,99.60
2019-01-26T19:30:20.560Z,99.60
2019-01-26T19:35:27.675Z,99.60
2019-01-26T19:40:34.722Z,99.60
2019-01-26T19:45:42.284Z,99.60
2019-01-26T19:50:49.397Z,99.60
2019-01-26T19:55:55.638Z,99.60
2019-01-26T20:01:02.040Z,99.60
2019-01-26T20:06:08.159Z,99.60
2019-01-26T20:11:15.242Z,99.60
2019-01-26T20:16:22.392Z,99.60
2019-01-26T20:21:28.346Z,99.60
2019-01-26T20:26:35.189Z,99.60
2019-01-26T20:31:42.284Z,99.60
2019-01-26T20:36:49.635Z,99.60
2019-01-26T20:41:56.855Z,99.60
2019-01-26T20:47:04.047Z,99.60
2019-01-26T20:52:10.955Z,99.60
2019-01-26T20:57:18.174Z,99.60
2019-01-26T21:02:25.515Z,99.60
2019-01-26T21:07:31.675Z,99.60
2019-01-26T21:12:42.303Z,99.60
2019-01-26T21:17:48.658Z,99.60
2019-01-26T21:22:55.868Z,99.60
2019-01-26T21:28:02.193Z,99.60
2019-01-26T21:33:08.979Z,99.60
2019-01-26T21:38:16.014Z,99.60
2019-01-26T21:43:23.140Z,99.60
2019-01-26T21:48:30.837Z,99.60
2019-01-26T21:53:39.625Z,99.60
2019-01-26T21:58:46.067Z,99.60
2019-01-26T22:03:52.375Z,99.60
2019-01-26T22:08:58.495Z,99.60
2019-01-26T22:14:06.819Z,99.60
2019-01-26T22:19:13.449Z,99.60
2019-01-26T22:24:21.451Z,99.60
2019-01-26T22:29:31.352Z,99.60
2019-01-26T22:34:38.082Z,99.60
2019-01-26T22:39:49.476Z,99.60
2019-01-26T22:44:56.406Z,99.60
2019-01-26T22:50:04.007Z,99.60
2019-01-26T22:55:11.505Z,99.60
2019-01-26T23:01:00.899Z,99.60
2019-01-26T23:12:37.290Z,99.60
2019-01-26T23:18:38.806Z,99.60
2019-01-26T23:24:31.860Z,99.60
2019-01-26T23:30:23.501Z,99.60
2019-01-26T23:35:30.713Z,99.60
2019-01-26T23:40:38.065Z,99.60
2019-01-26T23:45:45.288Z,99.60
2019-01-26T23:50:51.628Z,99.60
2019-01-26T23:55:58.111Z,99.60
